sensor_id;sensor_type;location;lat;lon;timestamp;pressure;altitude;pressure_sealevel;temperature;humidity
77240;BME280;66258;53.170;-2.240;2024-03-17T00:00:35;100228.25;;;21.68;95.22
77240;BME280;66258;53.170;-2.240;2024-03-17T00:03:01;100225.28;;;21.58;95.46
77240;BME280;66258;53.170;-2.240;2024-03-17T00:05:29;100230.91;;;21.51;95.26
77240;BME280;66258;53.170;-2.240;2024-03-17T00:07:55;100230.00;;;21.86;94.72
77240;BME280;66258;53.170;-2.240;2024-03-17T00:10:22;100230.59;;;21.88;94.08
77240;BME280;66258;53.170;-2.240;2024-03-17T00:12:48;100228.72;;;21.77;94.66
77240;BME280;66258;53.170;-2.240;2024-03-17T00:15:14;100218.16;;;21.85;93.84
77240;BME280;66258;53.170;-2.240;2024-03-17T00:17:40;100218.88;;;21.92;93.16
77240;BME280;66258;53.170;-2.240;2024-03-17T00:20:07;100208.56;;;22.00;93.23
77240;BME280;66258;53.170;-2.240;2024-03-17T00:22:35;100207.72;;;21.87;93.95
77240;BME280;66258;53.170;-2.240;2024-03-17T00:25:02;100203.84;;;21.48;95.36
77240;BME280;66258;53.170;-2.240;2024-03-17T00:27:28;100210.03;;;21.79;94.95
77240;BME280;66258;53.170;-2.240;2024-03-17T00:29:54;100210.34;;;21.94;94.20
77240;BME280;66258;53.170;-2.240;2024-03-17T00:32:20;100207.59;;;22.06;93.10
77240;BME280;66258;53.170;-2.240;2024-03-17T00:34:46;100207.09;;;22.09;92.10
77240;BME280;66258;53.170;-2.240;2024-03-17T00:37:12;100206.88;;;21.99;92.74
77240;BME280;66258;53.170;-2.240;2024-03-17T00:39:40;100201.34;;;22.10;92.41
77240;BME280;66258;53.170;-2.240;2024-03-17T00:42:06;100191.41;;;22.09;92.22
77240;BME280;66258;53.170;-2.240;2024-03-17T00:44:32;100196.78;;;22.16;92.66
77240;BME280;66258;53.170;-2.240;2024-03-17T00:46:58;100194.41;;;21.96;93.54
77240;BME280;66258;53.170;-2.240;2024-03-17T00:49:25;100188.63;;;22.09;92.53
77240;BME280;66258;53.170;-2.240;2024-03-17T00:51:52;100185.84;;;22.21;92.26
77240;BME280;66258;53.170;-2.240;2024-03-17T00:54:18;100183.47;;;22.13;92.41
77240;BME280;66258;53.170;-2.240;2024-03-17T00:56:46;100175.09;;;22.08;92.10
77240;BME280;66258;53.170;-2.240;2024-03-17T00:59:12;100186.03;;;22.31;91.59
77240;BME280;66258;53.170;-2.240;2024-03-17T01:01:38;100182.25;;;22.20;92.25
77240;BME280;66258;53.170;-2.240;2024-03-17T01:04:04;100191.38;;;22.21;91.96
77240;BME280;66258;53.170;-2.240;2024-03-17T01:06:31;100183.53;;;22.29;91.74
77240;BME280;66258;53.170;-2.240;2024-03-17T01:08:57;100177.00;;;22.19;91.37
77240;BME280;66258;53.170;-2.240;2024-03-17T01:11:23;100178.06;;;22.18;91.98
77240;BME280;66258;53.170;-2.240;2024-03-17T01:13:51;100174.66;;;22.27;92.16
77240;BME280;66258;53.170;-2.240;2024-03-17T01:16:17;100168.13;;;22.17;92.49
77240;BME280;66258;53.170;-2.240;2024-03-17T01:18:44;100161.78;;;22.16;91.78
77240;BME280;66258;53.170;-2.240;2024-03-17T01:21:10;100157.34;;;22.15;92.74
77240;BME280;66258;53.170;-2.240;2024-03-17T01:23:36;100160.22;;;22.09;93.11
77240;BME280;66258;53.170;-2.240;2024-03-17T01:26:02;100144.88;;;22.13;92.36
77240;BME280;66258;53.170;-2.240;2024-03-17T01:28:29;100145.03;;;22.06;93.18
77240;BME280;66258;53.170;-2.240;2024-03-17T01:30:57;100138.59;;;21.89;93.94
77240;BME280;66258;53.170;-2.240;2024-03-17T01:33:23;100148.72;;;22.12;93.69
77240;BME280;66258;53.170;-2.240;2024-03-17T01:35:50;100144.09;;;22.29;92.60
77240;BME280;66258;53.170;-2.240;2024-03-17T01:38:16;100142.34;;;22.23;92.04
77240;BME280;66258;53.170;-2.240;2024-03-17T01:40:42;100148.75;;;22.28;92.33
77240;BME280;66258;53.170;-2.240;2024-03-17T01:43:10;100134.84;;;22.07;93.12
77240;BME280;66258;53.170;-2.240;2024-03-17T01:45:36;100124.41;;;22.09;93.05
77240;BME280;66258;53.170;-2.240;2024-03-17T01:48:08;100135.16;;;22.22;93.26
77240;BME280;66258;53.170;-2.240;2024-03-17T01:50:39;100131.31;;;22.23;91.81
77240;BME280;66258;53.170;-2.240;2024-03-17T01:53:06;100128.13;;;22.31;92.28
77240;BME280;66258;53.170;-2.240;2024-03-17T01:55:33;100131.41;;;22.45;92.04
77240;BME280;66258;53.170;-2.240;2024-03-17T01:58:02;100121.19;;;22.28;92.40
77240;BME280;66258;53.170;-2.240;2024-03-17T02:00:29;100118.16;;;22.13;92.30
77240;BME280;66258;53.170;-2.240;2024-03-17T02:02:55;100126.63;;;22.23;93.34
77240;BME280;66258;53.170;-2.240;2024-03-17T02:05:23;100113.97;;;22.11;92.83
77240;BME280;66258;53.170;-2.240;2024-03-17T02:07:49;100106.66;;;22.33;91.99
77240;BME280;66258;53.170;-2.240;2024-03-17T02:10:14;100108.09;;;22.36;92.03
77240;BME280;66258;53.170;-2.240;2024-03-17T02:12:41;100101.63;;;22.30;91.97
77240;BME280;66258;53.170;-2.240;2024-03-17T02:15:08;100107.50;;;22.34;92.12
77240;BME280;66258;53.170;-2.240;2024-03-17T02:17:34;100102.31;;;22.37;91.70
77240;BME280;66258;53.170;-2.240;2024-03-17T02:20:00;100097.44;;;22.27;92.37
77240;BME280;66258;53.170;-2.240;2024-03-17T02:22:28;100088.59;;;22.25;92.25
77240;BME280;66258;53.170;-2.240;2024-03-17T02:24:54;100092.88;;;22.33;92.30
77240;BME280;66258;53.170;-2.240;2024-03-17T02:27:20;100091.44;;;22.31;92.72
77240;BME280;66258;53.170;-2.240;2024-03-17T02:29:46;100089.03;;;22.34;92.69
77240;BME280;66258;53.170;-2.240;2024-03-17T02:32:12;100087.19;;;22.23;93.39
77240;BME280;66258;53.170;-2.240;2024-03-17T02:34:38;100082.09;;;22.48;93.10
77240;BME280;66258;53.170;-2.240;2024-03-17T02:37:05;100083.44;;;22.46;92.71
77240;BME280;66258;53.170;-2.240;2024-03-17T02:39:33;100071.00;;;22.43;91.96
77240;BME280;66258;53.170;-2.240;2024-03-17T02:42:01;100074.75;;;22.54;92.06
77240;BME280;66258;53.170;-2.240;2024-03-17T02:44:27;100060.13;;;22.53;91.89
77240;BME280;66258;53.170;-2.240;2024-03-17T02:46:54;100068.75;;;22.40;91.57
77240;BME280;66258;53.170;-2.240;2024-03-17T02:49:20;100064.72;;;22.31;93.17
77240;BME280;66258;53.170;-2.240;2024-03-17T02:51:46;100055.44;;;22.37;93.44
77240;BME280;66258;53.170;-2.240;2024-03-17T02:54:12;100056.13;;;22.44;92.03
77240;BME280;66258;53.170;-2.240;2024-03-17T02:56:40;100053.00;;;22.57;91.80
77240;BME280;66258;53.170;-2.240;2024-03-17T02:59:06;100048.00;;;22.54;91.40
77240;BME280;66258;53.170;-2.240;2024-03-17T03:01:32;100050.25;;;22.57;91.33
77240;BME280;66258;53.170;-2.240;2024-03-17T03:03:58;100050.34;;;22.62;91.23
77240;BME280;66258;53.170;-2.240;2024-03-17T03:06:24;100045.81;;;22.56;91.26
77240;BME280;66258;53.170;-2.240;2024-03-17T03:08:51;100035.44;;;22.47;91.17
77240;BME280;66258;53.170;-2.240;2024-03-17T03:11:17;100036.72;;;22.56;90.80
77240;BME280;66258;53.170;-2.240;2024-03-17T03:13:45;100039.81;;;22.43;91.78
77240;BME280;66258;53.170;-2.240;2024-03-17T03:16:12;100035.06;;;22.21;92.67
77240;BME280;66258;53.170;-2.240;2024-03-17T03:18:39;100028.94;;;22.36;91.44
77240;BME280;66258;53.170;-2.240;2024-03-17T03:21:05;100029.69;;;22.32;91.53
77240;BME280;66258;53.170;-2.240;2024-03-17T03:23:32;100020.28;;;22.44;91.19
77240;BME280;66258;53.170;-2.240;2024-03-17T03:26:00;100021.41;;;22.48;90.89
77240;BME280;66258;53.170;-2.240;2024-03-17T03:28:26;100023.59;;;22.46;91.21
77240;BME280;66258;53.170;-2.240;2024-03-17T03:30:54;100020.56;;;22.48;90.48
77240;BME280;66258;53.170;-2.240;2024-03-17T03:33:20;100016.00;;;22.37;91.04
77240;BME280;66258;53.170;-2.240;2024-03-17T03:35:47;100025.94;;;22.54;90.84
77240;BME280;66258;53.170;-2.240;2024-03-17T03:38:14;100012.81;;;22.28;92.57
77240;BME280;66258;53.170;-2.240;2024-03-17T03:40:40;100010.88;;;22.28;91.65
77240;BME280;66258;53.170;-2.240;2024-03-17T03:43:06;100010.06;;;22.28;92.32
77240;BME280;66258;53.170;-2.240;2024-03-17T03:45:33;100010.56;;;22.42;91.79
77240;BME280;66258;53.170;-2.240;2024-03-17T03:48:01;100008.97;;;22.29;92.40
77240;BME280;66258;53.170;-2.240;2024-03-17T03:50:28;100001.88;;;22.16;93.28
77240;BME280;66258;53.170;-2.240;2024-03-17T03:52:54;100003.59;;;22.06;93.03
77240;BME280;66258;53.170;-2.240;2024-03-17T03:55:20;99997.81;;;21.90;94.32
77240;BME280;66258;53.170;-2.240;2024-03-17T03:57:47;99992.28;;;22.02;95.34
77240;BME280;66258;53.170;-2.240;2024-03-17T04:00:14;99991.22;;;21.91;95.40
77240;BME280;66258;53.170;-2.240;2024-03-17T04:02:41;99995.59;;;22.04;95.26
77240;BME280;66258;53.170;-2.240;2024-03-17T04:05:10;99991.31;;;21.97;96.05
77240;BME280;66258;53.170;-2.240;2024-03-17T04:07:36;99991.22;;;21.91;97.02
77240;BME280;66258;53.170;-2.240;2024-03-17T04:10:02;99984.56;;;22.04;95.68
77240;BME280;66258;53.170;-2.240;2024-03-17T04:12:29;99979.97;;;22.10;95.39
77240;BME280;66258;53.170;-2.240;2024-03-17T04:14:55;99978.13;;;21.99;96.47
77240;BME280;66258;53.170;-2.240;2024-03-17T04:17:21;99986.56;;;22.09;95.87
77240;BME280;66258;53.170;-2.240;2024-03-17T04:19:47;99976.25;;;21.87;96.51
77240;BME280;66258;53.170;-2.240;2024-03-17T04:22:15;99971.06;;;22.03;96.31
77240;BME280;66258;53.170;-2.240;2024-03-17T04:24:42;99971.91;;;21.91;96.50
77240;BME280;66258;53.170;-2.240;2024-03-17T04:27:08;99977.97;;;22.05;96.31
77240;BME280;66258;53.170;-2.240;2024-03-17T04:29:34;99977.66;;;22.02;96.70
77240;BME280;66258;53.170;-2.240;2024-03-17T04:32:00;99968.63;;;22.06;96.65
77240;BME280;66258;53.170;-2.240;2024-03-17T04:34:27;99967.59;;;21.95;96.85
77240;BME280;66258;53.170;-2.240;2024-03-17T04:36:54;99965.13;;;22.11;96.19
77240;BME280;66258;53.170;-2.240;2024-03-17T04:39:21;99962.34;;;22.11;95.91
77240;BME280;66258;53.170;-2.240;2024-03-17T04:41:47;99963.16;;;21.94;96.17
77240;BME280;66258;53.170;-2.240;2024-03-17T04:44:13;99966.41;;;21.91;97.30
77240;BME280;66258;53.170;-2.240;2024-03-17T04:46:40;99957.56;;;21.89;97.34
77240;BME280;66258;53.170;-2.240;2024-03-17T04:49:06;99959.66;;;21.99;97.11
77240;BME280;66258;53.170;-2.240;2024-03-17T04:51:32;99961.19;;;22.07;96.30
77240;BME280;66258;53.170;-2.240;2024-03-17T04:54:00;99960.03;;;22.03;96.65
77240;BME280;66258;53.170;-2.240;2024-03-17T04:56:28;99958.44;;;22.07;96.62
77240;BME280;66258;53.170;-2.240;2024-03-17T04:58:54;99963.09;;;22.06;96.71
77240;BME280;66258;53.170;-2.240;2024-03-17T05:01:20;99955.53;;;21.85;97.12
77240;BME280;66258;53.170;-2.240;2024-03-17T05:03:46;99960.16;;;21.79;98.40
77240;BME280;66258;53.170;-2.240;2024-03-17T05:06:13;99960.28;;;22.01;97.60
77240;BME280;66258;53.170;-2.240;2024-03-17T05:08:45;99955.59;;;22.02;96.77
77240;BME280;66258;53.170;-2.240;2024-03-17T05:11:11;99964.44;;;22.04;97.10
77240;BME280;66258;53.170;-2.240;2024-03-17T05:13:38;99957.41;;;21.96;96.81
77240;BME280;66258;53.170;-2.240;2024-03-17T05:16:05;99950.66;;;22.04;96.59
77240;BME280;66258;53.170;-2.240;2024-03-17T05:18:31;99949.38;;;21.94;96.63
77240;BME280;66258;53.170;-2.240;2024-03-17T05:20:57;99953.09;;;22.00;96.60
77240;BME280;66258;53.170;-2.240;2024-03-17T05:23:25;99959.31;;;21.95;97.03
77240;BME280;66258;53.170;-2.240;2024-03-17T05:25:51;99953.56;;;21.80;97.28
77240;BME280;66258;53.170;-2.240;2024-03-17T05:28:18;99956.69;;;22.01;96.83
77240;BME280;66258;53.170;-2.240;2024-03-17T05:30:45;99952.84;;;22.02;96.17
77240;BME280;66258;53.170;-2.240;2024-03-17T05:33:11;99948.44;;;21.89;96.63
77240;BME280;66258;53.170;-2.240;2024-03-17T05:35:37;99951.88;;;21.79;97.09
77240;BME280;66258;53.170;-2.240;2024-03-17T05:38:04;99955.38;;;21.75;97.56
77240;BME280;66258;53.170;-2.240;2024-03-17T05:40:30;99955.88;;;21.88;97.47
77240;BME280;66258;53.170;-2.240;2024-03-17T05:42:57;99954.41;;;21.81;97.52
77240;BME280;66258;53.170;-2.240;2024-03-17T05:45:22;99948.69;;;21.71;97.67
77240;BME280;66258;53.170;-2.240;2024-03-17T05:47:51;99953.63;;;21.85;97.09
77240;BME280;66258;53.170;-2.240;2024-03-17T05:50:17;99949.72;;;21.81;97.46
77240;BME280;66258;53.170;-2.240;2024-03-17T05:52:43;99953.56;;;21.80;96.94
77240;BME280;66258;53.170;-2.240;2024-03-17T05:55:09;99948.53;;;21.77;97.66
77240;BME280;66258;53.170;-2.240;2024-03-17T05:57:36;99948.59;;;21.82;97.47
77240;BME280;66258;53.170;-2.240;2024-03-17T06:00:02;99947.00;;;21.70;97.82
77240;BME280;66258;53.170;-2.240;2024-03-17T06:02:28;99946.44;;;21.84;97.36
77240;BME280;66258;53.170;-2.240;2024-03-17T06:04:56;99939.09;;;21.73;96.53
77240;BME280;66258;53.170;-2.240;2024-03-17T06:07:22;99935.66;;;21.83;96.93
77240;BME280;66258;53.170;-2.240;2024-03-17T06:09:48;99933.09;;;21.76;96.69
77240;BME280;66258;53.170;-2.240;2024-03-17T06:12:14;99930.25;;;21.71;96.85
77240;BME280;66258;53.170;-2.240;2024-03-17T06:14:40;99928.31;;;21.72;97.22
77240;BME280;66258;53.170;-2.240;2024-03-17T06:17:06;99936.59;;;21.72;97.35
77240;BME280;66258;53.170;-2.240;2024-03-17T06:19:32;99924.25;;;21.46;97.78
77240;BME280;66258;53.170;-2.240;2024-03-17T06:22:00;99924.47;;;21.56;97.71
77240;BME280;66258;53.170;-2.240;2024-03-17T06:24:26;99927.47;;;21.71;97.20
77240;BME280;66258;53.170;-2.240;2024-03-17T06:26:52;99927.97;;;21.68;97.22
77240;BME280;66258;53.170;-2.240;2024-03-17T06:29:17;99918.78;;;21.63;97.12
77240;BME280;66258;53.170;-2.240;2024-03-17T06:31:43;99927.13;;;21.68;97.20
77240;BME280;66258;53.170;-2.240;2024-03-17T06:34:11;99921.56;;;21.79;96.48
77240;BME280;66258;53.170;-2.240;2024-03-17T06:36:37;99922.72;;;21.67;96.80
77240;BME280;66258;53.170;-2.240;2024-03-17T06:39:05;99922.72;;;21.67;97.03
77240;BME280;66258;53.170;-2.240;2024-03-17T06:41:31;99919.63;;;21.63;97.06
77240;BME280;66258;53.170;-2.240;2024-03-17T06:43:57;99915.00;;;21.35;98.20
77240;BME280;66258;53.170;-2.240;2024-03-17T06:46:23;99916.84;;;21.63;97.61
77240;BME280;66258;53.170;-2.240;2024-03-17T06:48:49;99917.03;;;21.40;98.86
77240;BME280;66258;53.170;-2.240;2024-03-17T06:51:15;99916.34;;;21.49;98.61
77240;BME280;66258;53.170;-2.240;2024-03-17T06:53:41;99912.97;;;21.59;98.26
77240;BME280;66258;53.170;-2.240;2024-03-17T06:56:09;99908.19;;;21.71;96.93
77240;BME280;66258;53.170;-2.240;2024-03-17T06:58:34;99912.03;;;21.70;96.67
77240;BME280;66258;53.170;-2.240;2024-03-17T07:01:01;99908.59;;;21.63;96.67
77240;BME280;66258;53.170;-2.240;2024-03-17T07:03:28;99905.28;;;21.78;96.34
77240;BME280;66258;53.170;-2.240;2024-03-17T07:05:54;99912.88;;;21.87;97.08
77240;BME280;66258;53.170;-2.240;2024-03-17T07:08:21;99910.22;;;21.92;96.16
77240;BME280;66258;53.170;-2.240;2024-03-17T07:10:58;99913.47;;;21.89;96.12
77240;BME280;66258;53.170;-2.240;2024-03-17T07:13:27;99912.53;;;21.67;97.71
77240;BME280;66258;53.170;-2.240;2024-03-17T07:15:53;99913.56;;;21.78;97.05
77240;BME280;66258;53.170;-2.240;2024-03-17T07:18:19;99909.03;;;21.72;96.53
77240;BME280;66258;53.170;-2.240;2024-03-17T07:20:45;99908.09;;;21.66;97.32
77240;BME280;66258;53.170;-2.240;2024-03-17T07:23:12;99912.13;;;21.75;97.00
77240;BME280;66258;53.170;-2.240;2024-03-17T07:25:38;99918.56;;;21.81;97.27
77240;BME280;66258;53.170;-2.240;2024-03-17T07:28:04;99924.47;;;21.73;97.86
77240;BME280;66258;53.170;-2.240;2024-03-17T07:30:32;99919.31;;;21.76;96.68
77240;BME280;66258;53.170;-2.240;2024-03-17T07:32:58;99924.97;;;21.86;96.58
77240;BME280;66258;53.170;-2.240;2024-03-17T07:35:24;99932.16;;;21.87;96.83
77240;BME280;66258;53.170;-2.240;2024-03-17T07:37:50;99932.34;;;21.98;96.81
77240;BME280;66258;53.170;-2.240;2024-03-17T07:40:16;99932.34;;;21.98;96.48
77240;BME280;66258;53.170;-2.240;2024-03-17T07:42:42;99925.81;;;21.70;97.07
77240;BME280;66258;53.170;-2.240;2024-03-17T07:45:08;99930.00;;;21.89;97.10
77240;BME280;66258;53.170;-2.240;2024-03-17T07:47:36;99932.00;;;21.94;96.87
77240;BME280;66258;53.170;-2.240;2024-03-17T07:50:02;99934.03;;;21.99;96.88
77240;BME280;66258;53.170;-2.240;2024-03-17T07:52:28;99926.16;;;21.90;97.29
77240;BME280;66258;53.170;-2.240;2024-03-17T07:54:54;99918.69;;;22.03;96.91
77240;BME280;66258;53.170;-2.240;2024-03-17T07:57:20;99909.31;;;22.04;97.08
77240;BME280;66258;53.170;-2.240;2024-03-17T07:59:49;99908.22;;;22.05;96.75
77240;BME280;66258;53.170;-2.240;2024-03-17T08:02:15;99903.03;;;21.91;97.88
77240;BME280;66258;53.170;-2.240;2024-03-17T08:04:43;99899.97;;;22.05;97.34
77240;BME280;66258;53.170;-2.240;2024-03-17T08:07:10;99900.53;;;22.07;96.97
77240;BME280;66258;53.170;-2.240;2024-03-17T08:09:36;99908.13;;;22.33;96.64
77240;BME280;66258;53.170;-2.240;2024-03-17T08:12:03;99902.97;;;22.20;97.46
77240;BME280;66258;53.170;-2.240;2024-03-17T08:14:29;99918.06;;;22.34;96.65
77240;BME280;66258;53.170;-2.240;2024-03-17T08:16:55;99908.63;;;22.30;96.32
77240;BME280;66258;53.170;-2.240;2024-03-17T08:19:21;99905.31;;;22.50;95.78
77240;BME280;66258;53.170;-2.240;2024-03-17T08:21:49;99911.78;;;22.39;95.94
77240;BME280;66258;53.170;-2.240;2024-03-17T08:24:15;99917.72;;;22.31;95.67
77240;BME280;66258;53.170;-2.240;2024-03-17T08:26:41;99919.22;;;22.38;95.55
77240;BME280;66258;53.170;-2.240;2024-03-17T08:29:07;99910.88;;;22.33;95.39
77240;BME280;66258;53.170;-2.240;2024-03-17T08:31:34;99910.97;;;22.38;95.64
77240;BME280;66258;53.170;-2.240;2024-03-17T08:34:00;99912.50;;;22.51;95.06
77240;BME280;66258;53.170;-2.240;2024-03-17T08:36:26;99910.25;;;22.48;94.53
77240;BME280;66258;53.170;-2.240;2024-03-17T08:38:53;99916.03;;;22.68;94.23
77240;BME280;66258;53.170;-2.240;2024-03-17T08:41:20;99920.72;;;22.68;94.33
77240;BME280;66258;53.170;-2.240;2024-03-17T08:43:46;99917.22;;;22.72;94.21
77240;BME280;66258;53.170;-2.240;2024-03-17T08:46:12;99917.53;;;22.76;93.84
77240;BME280;66258;53.170;-2.240;2024-03-17T08:48:39;99919.06;;;22.67;94.14
77240;BME280;66258;53.170;-2.240;2024-03-17T08:51:06;99926.91;;;22.75;94.20
77240;BME280;66258;53.170;-2.240;2024-03-17T08:53:33;99929.78;;;22.80;93.87
77240;BME280;66258;53.170;-2.240;2024-03-17T08:56:03;99927.91;;;22.69;93.94
77240;BME280;66258;53.170;-2.240;2024-03-17T08:58:29;99932.41;;;22.75;94.37
77240;BME280;66258;53.170;-2.240;2024-03-17T09:00:55;99934.78;;;22.83;94.41
77240;BME280;66258;53.170;-2.240;2024-03-17T09:03:21;99932.03;;;22.83;94.37
77240;BME280;66258;53.170;-2.240;2024-03-17T09:05:48;99935.41;;;22.90;94.52
77240;BME280;66258;53.170;-2.240;2024-03-17T09:08:16;99934.28;;;22.69;95.06
77240;BME280;66258;53.170;-2.240;2024-03-17T09:10:43;99933.75;;;22.89;94.97
77240;BME280;66258;53.170;-2.240;2024-03-17T09:13:13;99926.25;;;23.06;95.11
77240;BME280;66258;53.170;-2.240;2024-03-17T09:15:39;99928.78;;;23.13;95.18
77240;BME280;66258;53.170;-2.240;2024-03-17T09:18:05;99917.41;;;23.09;95.37
77240;BME280;66258;53.170;-2.240;2024-03-17T09:20:32;99931.25;;;23.36;94.89
77240;BME280;66258;53.170;-2.240;2024-03-17T09:22:58;99930.00;;;23.49;94.63
77240;BME280;66258;53.170;-2.240;2024-03-17T09:25:24;99932.09;;;23.58;94.57
77240;BME280;66258;53.170;-2.240;2024-03-17T09:27:50;99939.69;;;23.51;94.11
77240;BME280;66258;53.170;-2.240;2024-03-17T09:30:18;99947.81;;;23.58;93.89
77240;BME280;66258;53.170;-2.240;2024-03-17T09:32:44;99954.06;;;23.48;94.05
77240;BME280;66258;53.170;-2.240;2024-03-17T09:35:10;99952.19;;;23.54;93.62
77240;BME280;66258;53.170;-2.240;2024-03-17T09:37:37;99956.78;;;23.70;94.12
77240;BME280;66258;53.170;-2.240;2024-03-17T09:40:04;99959.03;;;23.73;93.70
77240;BME280;66258;53.170;-2.240;2024-03-17T09:42:30;99963.97;;;23.98;93.58
77240;BME280;66258;53.170;-2.240;2024-03-17T09:44:56;99960.03;;;23.94;93.25
77240;BME280;66258;53.170;-2.240;2024-03-17T09:47:24;99965.19;;;24.12;92.96
77240;BME280;66258;53.170;-2.240;2024-03-17T09:49:51;99959.13;;;24.15;93.14
77240;BME280;66258;53.170;-2.240;2024-03-17T09:52:20;99968.25;;;24.16;92.28
77240;BME280;66258;53.170;-2.240;2024-03-17T09:54:47;99966.63;;;24.20;92.00
77240;BME280;66258;53.170;-2.240;2024-03-17T09:57:16;99963.72;;;24.31;92.25
77240;BME280;66258;53.170;-2.240;2024-03-17T09:59:43;99957.41;;;24.41;92.07
77240;BME280;66258;53.170;-2.240;2024-03-17T10:02:17;99958.03;;;24.48;91.58
77240;BME280;66258;53.170;-2.240;2024-03-17T10:04:45;99954.16;;;24.49;90.18
77240;BME280;66258;53.170;-2.240;2024-03-17T10:07:11;99960.19;;;24.41;90.03
77240;BME280;66258;53.170;-2.240;2024-03-17T10:09:38;99950.78;;;24.42;89.46
77240;BME280;66258;53.170;-2.240;2024-03-17T10:12:04;99956.28;;;24.37;89.23
77240;BME280;66258;53.170;-2.240;2024-03-17T10:14:30;99946.63;;;24.40;89.12
77240;BME280;66258;53.170;-2.240;2024-03-17T10:16:56;99951.13;;;24.51;88.93
77240;BME280;66258;53.170;-2.240;2024-03-17T10:19:23;99958.72;;;24.71;88.89
77240;BME280;66258;53.170;-2.240;2024-03-17T10:21:59;99959.03;;;24.79;88.18
77240;BME280;66258;53.170;-2.240;2024-03-17T10:24:26;99960.69;;;24.80;87.75
77240;BME280;66258;53.170;-2.240;2024-03-17T10:26:53;99953.91;;;24.56;86.27
77240;BME280;66258;53.170;-2.240;2024-03-17T10:29:24;99955.88;;;24.60;86.36
77240;BME280;66258;53.170;-2.240;2024-03-17T10:31:52;99959.81;;;24.70;86.13
77240;BME280;66258;53.170;-2.240;2024-03-17T10:34:18;99951.97;;;24.56;84.95
77240;BME280;66258;53.170;-2.240;2024-03-17T10:36:45;99948.63;;;24.54;85.26
77240;BME280;66258;53.170;-2.240;2024-03-17T10:39:23;99946.81;;;24.70;85.30
77240;BME280;66258;53.170;-2.240;2024-03-17T10:41:49;99944.66;;;24.82;84.84
77240;BME280;66258;53.170;-2.240;2024-03-17T10:44:15;99951.28;;;24.81;85.04
77240;BME280;66258;53.170;-2.240;2024-03-17T10:46:42;99939.53;;;25.06;85.23
77240;BME280;66258;53.170;-2.240;2024-03-17T10:49:10;99944.75;;;24.97;85.02
77240;BME280;66258;53.170;-2.240;2024-03-17T10:51:39;99946.41;;;24.98;84.27
77240;BME280;66258;53.170;-2.240;2024-03-17T10:54:08;99947.56;;;25.03;84.57
77240;BME280;66258;53.170;-2.240;2024-03-17T10:56:37;99937.00;;;24.99;84.18
77240;BME280;66258;53.170;-2.240;2024-03-17T10:59:03;99940.75;;;25.41;82.91
77240;BME280;66258;53.170;-2.240;2024-03-17T11:01:30;99934.22;;;25.92;82.41
77240;BME280;66258;53.170;-2.240;2024-03-17T11:03:57;99949.72;;;26.24;81.27
77240;BME280;66258;53.170;-2.240;2024-03-17T11:06:24;99944.75;;;26.46;79.32
77240;BME280;66258;53.170;-2.240;2024-03-17T11:08:51;99937.53;;;26.20;75.81
77240;BME280;66258;53.170;-2.240;2024-03-17T11:11:36;99945.31;;;26.43;78.77
77240;BME280;66258;53.170;-2.240;2024-03-17T11:14:16;99950.38;;;27.21;78.35
77240;BME280;66258;53.170;-2.240;2024-03-17T11:16:42;99947.34;;;27.66;74.80
77240;BME280;66258;53.170;-2.240;2024-03-17T11:19:15;99954.34;;;27.64;72.33
77240;BME280;66258;53.170;-2.240;2024-03-17T11:21:41;99941.75;;;27.71;70.40
77240;BME280;66258;53.170;-2.240;2024-03-17T11:24:18;99952.97;;;28.00;69.45
77240;BME280;66258;53.170;-2.240;2024-03-17T11:26:46;99957.31;;;27.73;70.95
77240;BME280;66258;53.170;-2.240;2024-03-17T11:29:26;99960.59;;;27.35;67.78
77240;BME280;66258;53.170;-2.240;2024-03-17T11:31:53;99959.69;;;26.70;65.38
77240;BME280;66258;53.170;-2.240;2024-03-17T11:34:30;99950.31;;;26.16;66.87
77240;BME280;66258;53.170;-2.240;2024-03-17T11:36:57;99955.56;;;25.77;68.77
77240;BME280;66258;53.170;-2.240;2024-03-17T11:39:48;99949.38;;;25.59;70.73
77240;BME280;66258;53.170;-2.240;2024-03-17T11:42:16;99952.81;;;25.97;72.46
77240;BME280;66258;53.170;-2.240;2024-03-17T11:44:43;99950.31;;;26.11;72.31
77240;BME280;66258;53.170;-2.240;2024-03-17T11:47:19;99951.97;;;26.07;71.12
77240;BME280;66258;53.170;-2.240;2024-03-17T11:49:46;99950.75;;;25.47;70.79
77240;BME280;66258;53.170;-2.240;2024-03-17T11:52:13;99957.97;;;25.53;71.46
77240;BME280;66258;53.170;-2.240;2024-03-17T11:54:41;99941.91;;;25.60;72.00
77240;BME280;66258;53.170;-2.240;2024-03-17T11:57:09;99947.81;;;25.94;72.19
77240;BME280;66258;53.170;-2.240;2024-03-17T11:59:37;99938.09;;;26.01;71.55
77240;BME280;66258;53.170;-2.240;2024-03-17T12:02:10;99947.50;;;25.85;69.65
77240;BME280;66258;53.170;-2.240;2024-03-17T12:04:41;99943.09;;;26.10;71.46
77240;BME280;66258;53.170;-2.240;2024-03-17T12:07:12;99944.22;;;26.34;70.85
77240;BME280;66258;53.170;-2.240;2024-03-17T12:09:41;99940.31;;;26.45;70.39
77240;BME280;66258;53.170;-2.240;2024-03-17T12:12:09;99928.69;;;26.33;69.32
77240;BME280;66258;53.170;-2.240;2024-03-17T12:14:38;99937.28;;;26.37;69.99
77240;BME280;66258;53.170;-2.240;2024-03-17T12:17:06;99938.66;;;26.39;69.48
77240;BME280;66258;53.170;-2.240;2024-03-17T12:19:33;99933.63;;;26.46;70.13
77240;BME280;66258;53.170;-2.240;2024-03-17T12:22:01;99938.31;;;26.61;69.94
77240;BME280;66258;53.170;-2.240;2024-03-17T12:24:28;99938.88;;;26.68;69.64
77240;BME280;66258;53.170;-2.240;2024-03-17T12:26:56;99936.66;;;26.65;67.64
77240;BME280;66258;53.170;-2.240;2024-03-17T12:29:23;99932.75;;;26.61;68.20
77240;BME280;66258;53.170;-2.240;2024-03-17T12:31:52;99936.38;;;26.66;68.14
77240;BME280;66258;53.170;-2.240;2024-03-17T12:34:19;99931.63;;;26.72;67.71
77240;BME280;66258;53.170;-2.240;2024-03-17T12:36:45;99923.53;;;26.91;67.42
77240;BME280;66258;53.170;-2.240;2024-03-17T12:39:17;99924.03;;;27.08;68.35
77240;BME280;66258;53.170;-2.240;2024-03-17T12:41:44;99926.78;;;27.18;66.33
77240;BME280;66258;53.170;-2.240;2024-03-17T12:44:21;99924.53;;;27.20;67.04
77240;BME280;66258;53.170;-2.240;2024-03-17T12:46:47;99925.31;;;27.26;66.94